Magnolia, Minnesota
Current Conditions -  °F | °C
As of 5:14 PM on Sunday 21 Dec 2014 (Local Time) from KLYV Reporting Station
Haze Haze  
Wind Chill: 27°   Ceiling: 600
Heat Index: 37°   Visibility: 4mi
Dew Point: 36°   Wind: 18mph
Humidity: 93%   Direction: 180°S
Pressure: 29.62"   Gusts: NA
Location:  43.65°N, 96.08°W
Report Text: KLYV 212314Z AUTO 18016KT 4SM BR OVC006 03/02 A2962 RMK AO2
Loading
Personal Weather Stations






























Interactive Weather Map New forecast layout! Learn more

10-Day Weather Forecast

Advertisements
Track Severe Weather on mobile